sensor_id;sensor_type;location;lat;lon;timestamp;P1;durP1;ratioP1;P2;durP2;ratioP2
32964;SDS011;19317;48.226;11.686;2024-01-30T00:03:59;9.33;;;6.53;;
32964;SDS011;19317;48.226;11.686;2024-01-30T00:08:50;9.00;;;6.60;;
32964;SDS011;19317;48.226;11.686;2024-01-30T00:13:41;8.17;;;6.30;;
32964;SDS011;19317;48.226;11.686;2024-01-30T00:18:32;7.13;;;6.07;;
32964;SDS011;19317;48.226;11.686;2024-01-30T00:23:22;9.97;;;6.20;;
32964;SDS011;19317;48.226;11.686;2024-01-30T00:28:13;8.40;;;6.07;;
32964;SDS011;19317;48.226;11.686;2024-01-30T00:33:04;8.87;;;6.20;;
32964;SDS011;19317;48.226;11.686;2024-01-30T00:37:55;8.63;;;6.40;;
32964;SDS011;19317;48.226;11.686;2024-01-30T00:42:46;9.10;;;6.50;;
32964;SDS011;19317;48.226;11.686;2024-01-30T00:47:37;8.23;;;6.60;;
32964;SDS011;19317;48.226;11.686;2024-01-30T00:52:28;8.50;;;6.53;;
32964;SDS011;19317;48.226;11.686;2024-01-30T00:57:19;9.60;;;6.13;;
32964;SDS011;19317;48.226;11.686;2024-01-30T01:02:09;8.53;;;6.23;;
32964;SDS011;19317;48.226;11.686;2024-01-30T01:07:00;8.13;;;6.33;;
32964;SDS011;19317;48.226;11.686;2024-01-30T01:11:51;8.83;;;6.07;;
32964;SDS011;19317;48.226;11.686;2024-01-30T01:16:42;11.53;;;6.87;;
32964;SDS011;19317;48.226;11.686;2024-01-30T01:21:33;8.10;;;6.60;;
32964;SDS011;19317;48.226;11.686;2024-01-30T01:26:24;7.43;;;6.10;;
32964;SDS011;19317;48.226;11.686;2024-01-30T01:31:15;8.27;;;6.27;;
32964;SDS011;19317;48.226;11.686;2024-01-30T01:36:06;8.73;;;6.53;;
32964;SDS011;19317;48.226;11.686;2024-01-30T01:40:57;7.70;;;6.20;;
32964;SDS011;19317;48.226;11.686;2024-01-30T01:45:47;8.13;;;6.10;;
32964;SDS011;19317;48.226;11.686;2024-01-30T01:50:38;8.83;;;6.60;;
32964;SDS011;19317;48.226;11.686;2024-01-30T01:55:29;12.10;;;6.77;;
32964;SDS011;19317;48.226;11.686;2024-01-30T02:00:21;10.23;;;7.27;;
32964;SDS011;19317;48.226;11.686;2024-01-30T02:05:12;8.10;;;7.00;;
32964;SDS011;19317;48.226;11.686;2024-01-30T02:10:03;9.27;;;6.63;;
32964;SDS011;19317;48.226;11.686;2024-01-30T02:14:54;7.33;;;6.20;;
32964;SDS011;19317;48.226;11.686;2024-01-30T02:19:45;8.30;;;6.57;;
32964;SDS011;19317;48.226;11.686;2024-01-30T02:24:36;6.73;;;5.97;;
32964;SDS011;19317;48.226;11.686;2024-01-30T02:29:26;7.20;;;6.07;;
32964;SDS011;19317;48.226;11.686;2024-01-30T02:34:18;8.47;;;6.47;;
32964;SDS011;19317;48.226;11.686;2024-01-30T02:39:09;7.67;;;6.80;;
32964;SDS011;19317;48.226;11.686;2024-01-30T02:44:00;8.23;;;5.90;;
32964;SDS011;19317;48.226;11.686;2024-01-30T02:48:51;7.57;;;5.90;;
32964;SDS011;19317;48.226;11.686;2024-01-30T02:53:42;6.80;;;6.07;;
32964;SDS011;19317;48.226;11.686;2024-01-30T02:58:33;7.40;;;6.27;;
32964;SDS011;19317;48.226;11.686;2024-01-30T03:03:24;9.73;;;6.63;;
32964;SDS011;19317;48.226;11.686;2024-01-30T03:08:14;8.83;;;6.70;;
32964;SDS011;19317;48.226;11.686;2024-01-30T03:13:05;9.40;;;6.60;;
32964;SDS011;19317;48.226;11.686;2024-01-30T03:17:56;9.73;;;6.33;;
32964;SDS011;19317;48.226;11.686;2024-01-30T03:22:47;8.30;;;6.23;;
32964;SDS011;19317;48.226;11.686;2024-01-30T03:27:38;8.87;;;6.13;;
32964;SDS011;19317;48.226;11.686;2024-01-30T03:32:29;8.63;;;6.13;;
32964;SDS011;19317;48.226;11.686;2024-01-30T03:37:20;8.17;;;6.40;;
32964;SDS011;19317;48.226;11.686;2024-01-30T03:42:11;8.13;;;6.10;;
32964;SDS011;19317;48.226;11.686;2024-01-30T03:47:01;8.67;;;6.40;;
32964;SDS011;19317;48.226;11.686;2024-01-30T03:51:52;8.03;;;5.83;;
32964;SDS011;19317;48.226;11.686;2024-01-30T03:56:43;9.27;;;6.60;;
32964;SDS011;19317;48.226;11.686;2024-01-30T04:01:34;8.07;;;6.07;;
32964;SDS011;19317;48.226;11.686;2024-01-30T04:06:26;7.50;;;5.67;;
32964;SDS011;19317;48.226;11.686;2024-01-30T04:11:18;8.67;;;6.20;;
32964;SDS011;19317;48.226;11.686;2024-01-30T04:16:18;7.67;;;6.10;;
32964;SDS011;19317;48.226;11.686;2024-01-30T04:21:09;17.40;;;11.27;;
32964;SDS011;19317;48.226;11.686;2024-01-30T04:26:00;10.67;;;8.13;;
32964;SDS011;19317;48.226;11.686;2024-01-30T04:30:51;6.43;;;5.63;;
32964;SDS011;19317;48.226;11.686;2024-01-30T04:35:42;8.37;;;5.90;;
32964;SDS011;19317;48.226;11.686;2024-01-30T04:40:33;8.13;;;6.23;;
32964;SDS011;19317;48.226;11.686;2024-01-30T04:45:24;9.23;;;5.97;;
32964;SDS011;19317;48.226;11.686;2024-01-30T04:50:14;7.17;;;5.50;;
32964;SDS011;19317;48.226;11.686;2024-01-30T04:55:05;7.93;;;5.93;;
32964;SDS011;19317;48.226;11.686;2024-01-30T04:59:57;7.67;;;5.87;;
32964;SDS011;19317;48.226;11.686;2024-01-30T05:04:47;8.33;;;5.93;;
32964;SDS011;19317;48.226;11.686;2024-01-30T05:09:38;8.53;;;6.10;;
32964;SDS011;19317;48.226;11.686;2024-01-30T05:14:29;7.27;;;5.37;;
32964;SDS011;19317;48.226;11.686;2024-01-30T05:19:20;7.43;;;5.43;;
32964;SDS011;19317;48.226;11.686;2024-01-30T05:24:11;7.53;;;5.80;;
32964;SDS011;19317;48.226;11.686;2024-01-30T05:29:02;10.93;;;6.17;;
32964;SDS011;19317;48.226;11.686;2024-01-30T05:33:54;9.20;;;5.40;;
32964;SDS011;19317;48.226;11.686;2024-01-30T05:38:44;6.90;;;5.37;;
32964;SDS011;19317;48.226;11.686;2024-01-30T05:43:35;7.67;;;5.90;;
32964;SDS011;19317;48.226;11.686;2024-01-30T05:48:26;11.90;;;5.97;;
32964;SDS011;19317;48.226;11.686;2024-01-30T05:53:17;7.50;;;6.00;;
32964;SDS011;19317;48.226;11.686;2024-01-30T05:58:08;8.47;;;5.53;;
32964;SDS011;19317;48.226;11.686;2024-01-30T06:02:59;7.20;;;5.30;;
32964;SDS011;19317;48.226;11.686;2024-01-30T06:07:50;8.37;;;5.57;;
32964;SDS011;19317;48.226;11.686;2024-01-30T06:12:41;8.77;;;5.53;;
32964;SDS011;19317;48.226;11.686;2024-01-30T06:17:32;7.23;;;5.60;;
32964;SDS011;19317;48.226;11.686;2024-01-30T06:22:23;7.20;;;6.47;;
32964;SDS011;19317;48.226;11.686;2024-01-30T06:27:14;7.60;;;5.07;;
32964;SDS011;19317;48.226;11.686;2024-01-30T06:32:05;5.83;;;5.20;;
32964;SDS011;19317;48.226;11.686;2024-01-30T06:36:56;6.63;;;4.80;;
32964;SDS011;19317;48.226;11.686;2024-01-30T06:41:47;10.17;;;7.30;;
32964;SDS011;19317;48.226;11.686;2024-01-30T06:46:38;7.67;;;6.40;;
32964;SDS011;19317;48.226;11.686;2024-01-30T06:51:29;8.67;;;4.57;;
32964;SDS011;19317;48.226;11.686;2024-01-30T06:56:20;5.83;;;4.90;;
32964;SDS011;19317;48.226;11.686;2024-01-30T07:01:10;5.37;;;4.33;;
32964;SDS011;19317;48.226;11.686;2024-01-30T07:06:01;6.40;;;4.90;;
32964;SDS011;19317;48.226;11.686;2024-01-30T07:10:52;6.57;;;5.00;;
32964;SDS011;19317;48.226;11.686;2024-01-30T07:15:43;6.30;;;5.00;;
32964;SDS011;19317;48.226;11.686;2024-01-30T07:20:34;7.77;;;5.17;;
32964;SDS011;19317;48.226;11.686;2024-01-30T07:25:25;7.63;;;4.87;;
32964;SDS011;19317;48.226;11.686;2024-01-30T07:30:16;8.23;;;5.70;;
32964;SDS011;19317;48.226;11.686;2024-01-30T07:35:07;7.20;;;5.50;;
32964;SDS011;19317;48.226;11.686;2024-01-30T07:39:58;5.33;;;4.67;;
32964;SDS011;19317;48.226;11.686;2024-01-30T07:44:48;6.37;;;4.70;;
32964;SDS011;19317;48.226;11.686;2024-01-30T07:49:39;6.37;;;4.63;;
32964;SDS011;19317;48.226;11.686;2024-01-30T07:54:30;5.80;;;4.83;;
32964;SDS011;19317;48.226;11.686;2024-01-30T07:59:21;5.80;;;4.60;;
32964;SDS011;19317;48.226;11.686;2024-01-30T08:04:12;7.43;;;5.40;;
32964;SDS011;19317;48.226;11.686;2024-01-30T08:09:03;5.43;;;4.93;;
32964;SDS011;19317;48.226;11.686;2024-01-30T08:13:54;8.67;;;4.70;;
32964;SDS011;19317;48.226;11.686;2024-01-30T08:18:44;10.40;;;4.70;;
32964;SDS011;19317;48.226;11.686;2024-01-30T08:23:35;7.73;;;4.17;;
32964;SDS011;19317;48.226;11.686;2024-01-30T08:28:28;6.17;;;4.00;;
32964;SDS011;19317;48.226;11.686;2024-01-30T08:33:19;7.97;;;4.63;;
32964;SDS011;19317;48.226;11.686;2024-01-30T08:38:10;7.83;;;4.00;;
32964;SDS011;19317;48.226;11.686;2024-01-30T08:43:01;4.50;;;3.70;;
32964;SDS011;19317;48.226;11.686;2024-01-30T08:47:52;4.30;;;3.80;;
32964;SDS011;19317;48.226;11.686;2024-01-30T08:52:43;4.47;;;3.80;;
32964;SDS011;19317;48.226;11.686;2024-01-30T08:57:34;5.63;;;3.93;;
32964;SDS011;19317;48.226;11.686;2024-01-30T09:02:25;4.63;;;3.70;;
32964;SDS011;19317;48.226;11.686;2024-01-30T09:07:17;13.00;;;5.17;;
32964;SDS011;19317;48.226;11.686;2024-01-30T09:12:08;8.37;;;5.77;;
32964;SDS011;19317;48.226;11.686;2024-01-30T09:16:59;5.93;;;4.50;;
32964;SDS011;19317;48.226;11.686;2024-01-30T09:21:50;4.17;;;3.77;;
32964;SDS011;19317;48.226;11.686;2024-01-30T09:26:41;6.40;;;3.60;;
32964;SDS011;19317;48.226;11.686;2024-01-30T09:31:32;6.27;;;4.20;;
32964;SDS011;19317;48.226;11.686;2024-01-30T09:36:23;9.23;;;5.03;;
32964;SDS011;19317;48.226;11.686;2024-01-30T09:41:14;11.20;;;5.33;;
32964;SDS011;19317;48.226;11.686;2024-01-30T09:46:06;9.13;;;5.27;;
32964;SDS011;19317;48.226;11.686;2024-01-30T09:50:58;8.47;;;4.97;;
32964;SDS011;19317;48.226;11.686;2024-01-30T09:55:50;6.03;;;4.13;;
32964;SDS011;19317;48.226;11.686;2024-01-30T10:00:40;7.23;;;3.80;;
32964;SDS011;19317;48.226;11.686;2024-01-30T10:05:31;4.40;;;3.83;;
32964;SDS011;19317;48.226;11.686;2024-01-30T10:10:23;8.00;;;4.03;;
32964;SDS011;19317;48.226;11.686;2024-01-30T10:15:14;5.03;;;3.77;;
32964;SDS011;19317;48.226;11.686;2024-01-30T10:20:04;6.90;;;4.00;;
32964;SDS011;19317;48.226;11.686;2024-01-30T10:24:55;11.23;;;3.97;;
32964;SDS011;19317;48.226;11.686;2024-01-30T10:29:48;8.20;;;4.10;;
32964;SDS011;19317;48.226;11.686;2024-01-30T10:34:39;10.27;;;4.27;;
32964;SDS011;19317;48.226;11.686;2024-01-30T10:39:30;5.97;;;4.13;;
32964;SDS011;19317;48.226;11.686;2024-01-30T10:44:22;9.87;;;4.73;;
32964;SDS011;19317;48.226;11.686;2024-01-30T10:49:12;6.57;;;4.47;;
32964;SDS011;19317;48.226;11.686;2024-01-30T10:54:04;6.47;;;4.80;;
32964;SDS011;19317;48.226;11.686;2024-01-30T10:58:55;9.43;;;4.80;;
32964;SDS011;19317;48.226;11.686;2024-01-30T11:03:46;10.83;;;4.70;;
32964;SDS011;19317;48.226;11.686;2024-01-30T11:08:37;6.97;;;5.13;;
32964;SDS011;19317;48.226;11.686;2024-01-30T11:13:31;6.50;;;4.43;;
32964;SDS011;19317;48.226;11.686;2024-01-30T11:18:22;7.83;;;4.60;;
32964;SDS011;19317;48.226;11.686;2024-01-30T11:23:13;6.83;;;4.70;;
32964;SDS011;19317;48.226;11.686;2024-01-30T11:28:04;8.13;;;5.03;;
32964;SDS011;19317;48.226;11.686;2024-01-30T11:33:02;8.40;;;4.50;;
32964;SDS011;19317;48.226;11.686;2024-01-30T11:37:53;6.70;;;4.63;;
32964;SDS011;19317;48.226;11.686;2024-01-30T11:42:44;9.50;;;5.07;;
32964;SDS011;19317;48.226;11.686;2024-01-30T11:47:36;8.57;;;4.73;;
32964;SDS011;19317;48.226;11.686;2024-01-30T11:52:27;9.70;;;5.03;;
32964;SDS011;19317;48.226;11.686;2024-01-30T11:57:18;7.07;;;4.40;;
32964;SDS011;19317;48.226;11.686;2024-01-30T12:02:09;7.80;;;4.33;;
32964;SDS011;19317;48.226;11.686;2024-01-30T12:07:05;7.00;;;4.20;;
32964;SDS011;19317;48.226;11.686;2024-01-30T12:11:56;6.77;;;4.20;;
32964;SDS011;19317;48.226;11.686;2024-01-30T12:16:50;6.57;;;4.10;;
32964;SDS011;19317;48.226;11.686;2024-01-30T12:21:41;6.23;;;4.20;;
32964;SDS011;19317;48.226;11.686;2024-01-30T12:26:32;5.77;;;3.97;;
32964;SDS011;19317;48.226;11.686;2024-01-30T12:31:26;5.97;;;4.30;;
32964;SDS011;19317;48.226;11.686;2024-01-30T12:36:17;5.53;;;3.93;;
32964;SDS011;19317;48.226;11.686;2024-01-30T12:41:08;6.07;;;4.40;;
32964;SDS011;19317;48.226;11.686;2024-01-30T12:45:58;5.33;;;4.00;;
32964;SDS011;19317;48.226;11.686;2024-01-30T12:50:49;5.57;;;4.13;;
32964;SDS011;19317;48.226;11.686;2024-01-30T12:55:40;7.43;;;4.30;;
32964;SDS011;19317;48.226;11.686;2024-01-30T13:00:31;4.50;;;4.10;;
32964;SDS011;19317;48.226;11.686;2024-01-30T13:05:22;5.43;;;4.40;;
32964;SDS011;19317;48.226;11.686;2024-01-30T13:10:13;9.83;;;4.20;;
32964;SDS011;19317;48.226;11.686;2024-01-30T13:15:04;5.90;;;4.40;;
32964;SDS011;19317;48.226;11.686;2024-01-30T13:19:55;7.87;;;4.37;;
32964;SDS011;19317;48.226;11.686;2024-01-30T13:24:47;8.37;;;4.33;;
32964;SDS011;19317;48.226;11.686;2024-01-30T13:29:37;9.23;;;4.10;;
32964;SDS011;19317;48.226;11.686;2024-01-30T13:34:28;6.27;;;4.50;;
32964;SDS011;19317;48.226;11.686;2024-01-30T13:39:19;5.37;;;4.27;;
32964;SDS011;19317;48.226;11.686;2024-01-30T13:44:10;7.63;;;4.23;;
32964;SDS011;19317;48.226;11.686;2024-01-30T13:49:01;5.47;;;4.43;;
32964;SDS011;19317;48.226;11.686;2024-01-30T13:53:52;5.27;;;4.30;;
32964;SDS011;19317;48.226;11.686;2024-01-30T13:58:43;8.30;;;4.10;;
32964;SDS011;19317;48.226;11.686;2024-01-30T14:03:34;5.20;;;4.40;;
32964;SDS011;19317;48.226;11.686;2024-01-30T14:08:25;5.33;;;4.40;;
32964;SDS011;19317;48.226;11.686;2024-01-30T14:13:16;4.80;;;4.30;;
32964;SDS011;19317;48.226;11.686;2024-01-30T14:18:06;6.13;;;4.53;;
32964;SDS011;19317;48.226;11.686;2024-01-30T14:22:57;5.97;;;4.37;;
32964;SDS011;19317;48.226;11.686;2024-01-30T14:27:48;6.93;;;4.60;;
32964;SDS011;19317;48.226;11.686;2024-01-30T14:32:39;6.13;;;4.30;;
32964;SDS011;19317;48.226;11.686;2024-01-30T14:37:30;7.35;;;4.68;;
32964;SDS011;19317;48.226;11.686;2024-01-30T14:42:21;7.87;;;4.10;;
32964;SDS011;19317;48.226;11.686;2024-01-30T14:47:12;9.30;;;4.57;;
32964;SDS011;19317;48.226;11.686;2024-01-30T14:52:03;5.00;;;4.27;;
32964;SDS011;19317;48.226;11.686;2024-01-30T14:56:54;7.53;;;4.70;;
32964;SDS011;19317;48.226;11.686;2024-01-30T15:01:45;10.67;;;4.70;;
32964;SDS011;19317;48.226;11.686;2024-01-30T15:06:36;8.80;;;4.33;;
32964;SDS011;19317;48.226;11.686;2024-01-30T15:11:27;8.93;;;4.57;;
32964;SDS011;19317;48.226;11.686;2024-01-30T15:16:17;7.83;;;4.60;;
32964;SDS011;19317;48.226;11.686;2024-01-30T15:21:08;6.80;;;4.30;;
32964;SDS011;19317;48.226;11.686;2024-01-30T15:25:59;12.90;;;5.03;;
32964;SDS011;19317;48.226;11.686;2024-01-30T15:30:50;8.43;;;5.23;;
32964;SDS011;19317;48.226;11.686;2024-01-30T15:35:41;10.20;;;4.83;;
32964;SDS011;19317;48.226;11.686;2024-01-30T15:40:32;6.47;;;4.70;;
32964;SDS011;19317;48.226;11.686;2024-01-30T15:45:23;5.93;;;5.00;;
32964;SDS011;19317;48.226;11.686;2024-01-30T15:50:14;9.27;;;5.20;;
32964;SDS011;19317;48.226;11.686;2024-01-30T15:55:05;9.30;;;5.27;;
32964;SDS011;19317;48.226;11.686;2024-01-30T15:59:56;11.90;;;5.17;;
32964;SDS011;19317;48.226;11.686;2024-01-30T16:04:47;13.30;;;5.17;;
32964;SDS011;19317;48.226;11.686;2024-01-30T16:09:38;14.03;;;5.63;;
32964;SDS011;19317;48.226;11.686;2024-01-30T16:14:28;9.27;;;5.30;;
32964;SDS011;19317;48.226;11.686;2024-01-30T16:19:20;10.97;;;5.10;;
32964;SDS011;19317;48.226;11.686;2024-01-30T16:24:11;13.17;;;5.50;;
32964;SDS011;19317;48.226;11.686;2024-01-30T16:29:01;10.57;;;5.20;;
32964;SDS011;19317;48.226;11.686;2024-01-30T16:33:52;11.77;;;5.70;;
32964;SDS011;19317;48.226;11.686;2024-01-30T16:38:43;15.40;;;7.27;;
32964;SDS011;19317;48.226;11.686;2024-01-30T16:43:34;13.63;;;6.13;;
32964;SDS011;19317;48.226;11.686;2024-01-30T16:48:28;11.80;;;5.93;;
32964;SDS011;19317;48.226;11.686;2024-01-30T16:53:19;13.87;;;7.30;;
32964;SDS011;19317;48.226;11.686;2024-01-30T16:58:10;16.60;;;6.50;;
32964;SDS011;19317;48.226;11.686;2024-01-30T17:03:01;13.10;;;5.83;;
32964;SDS011;19317;48.226;11.686;2024-01-30T17:07:52;12.57;;;5.60;;
32964;SDS011;19317;48.226;11.686;2024-01-30T17:12:43;9.37;;;5.40;;
32964;SDS011;19317;48.226;11.686;2024-01-30T17:17:34;10.93;;;5.80;;
32964;SDS011;19317;48.226;11.686;2024-01-30T17:22:25;13.33;;;7.60;;
32964;SDS011;19317;48.226;11.686;2024-01-30T17:27:16;14.67;;;9.30;;
32964;SDS011;19317;48.226;11.686;2024-01-30T17:32:07;10.93;;;7.90;;
32964;SDS011;19317;48.226;11.686;2024-01-30T17:36:58;16.67;;;10.03;;
32964;SDS011;19317;48.226;11.686;2024-01-30T17:41:49;74.60;;;55.30;;
32964;SDS011;19317;48.226;11.686;2024-01-30T17:46:40;143.47;;;97.70;;
32964;SDS011;19317;48.226;11.686;2024-01-30T17:51:31;42.33;;;29.83;;
32964;SDS011;19317;48.226;11.686;2024-01-30T17:56:22;14.80;;;10.97;;
32964;SDS011;19317;48.226;11.686;2024-01-30T18:01:13;17.60;;;8.83;;
32964;SDS011;19317;48.226;11.686;2024-01-30T18:06:04;8.80;;;6.93;;
32964;SDS011;19317;48.226;11.686;2024-01-30T18:10:55;11.03;;;7.10;;
32964;SDS011;19317;48.226;11.686;2024-01-30T18:15:46;18.10;;;9.97;;
32964;SDS011;19317;48.226;11.686;2024-01-30T18:20:37;18.87;;;12.20;;
32964;SDS011;19317;48.226;11.686;2024-01-30T18:25:28;14.40;;;10.53;;
32964;SDS011;19317;48.226;11.686;2024-01-30T18:30:18;14.63;;;9.63;;
32964;SDS011;19317;48.226;11.686;2024-01-30T18:35:09;11.57;;;7.97;;
32964;SDS011;19317;48.226;11.686;2024-01-30T18:40:01;10.77;;;7.97;;
32964;SDS011;19317;48.226;11.686;2024-01-30T18:44:52;11.00;;;8.17;;
32964;SDS011;19317;48.226;11.686;2024-01-30T18:49:43;10.63;;;7.10;;
32964;SDS011;19317;48.226;11.686;2024-01-30T18:54:33;10.97;;;8.03;;
32964;SDS011;19317;48.226;11.686;2024-01-30T18:59:25;10.57;;;7.37;;
32964;SDS011;19317;48.226;11.686;2024-01-30T19:04:15;17.03;;;7.90;;
32964;SDS011;19317;48.226;11.686;2024-01-30T19:09:06;14.33;;;8.27;;
32964;SDS011;19317;48.226;11.686;2024-01-30T19:13:57;13.00;;;7.77;;
32964;SDS011;19317;48.226;11.686;2024-01-30T19:18:48;12.20;;;8.27;;
32964;SDS011;19317;48.226;11.686;2024-01-30T19:23:39;13.13;;;9.70;;
32964;SDS011;19317;48.226;11.686;2024-01-30T19:28:30;15.70;;;8.93;;
32964;SDS011;19317;48.226;11.686;2024-01-30T19:33:21;13.83;;;7.97;;
32964;SDS011;19317;48.226;11.686;2024-01-30T19:38:12;12.60;;;7.80;;
32964;SDS011;19317;48.226;11.686;2024-01-30T19:43:02;12.20;;;8.50;;
32964;SDS011;19317;48.226;11.686;2024-01-30T19:47:53;15.43;;;8.73;;
32964;SDS011;19317;48.226;11.686;2024-01-30T19:52:44;11.53;;;8.20;;
32964;SDS011;19317;48.226;11.686;2024-01-30T19:57:35;15.53;;;9.37;;
32964;SDS011;19317;48.226;11.686;2024-01-30T20:02:26;22.40;;;12.30;;
32964;SDS011;19317;48.226;11.686;2024-01-30T20:07:17;20.00;;;13.80;;
32964;SDS011;19317;48.226;11.686;2024-01-30T20:12:08;22.70;;;12.20;;
32964;SDS011;19317;48.226;11.686;2024-01-30T20:16:59;17.00;;;10.60;;
32964;SDS011;19317;48.226;11.686;2024-01-30T20:21:50;13.10;;;9.93;;
32964;SDS011;19317;48.226;11.686;2024-01-30T20:26:40;17.57;;;10.83;;
32964;SDS011;19317;48.226;11.686;2024-01-30T20:31:31;15.00;;;10.07;;
32964;SDS011;19317;48.226;11.686;2024-01-30T20:36:22;13.70;;;9.47;;
32964;SDS011;19317;48.226;11.686;2024-01-30T20:41:13;19.23;;;11.50;;
32964;SDS011;19317;48.226;11.686;2024-01-30T20:46:05;23.10;;;13.33;;
32964;SDS011;19317;48.226;11.686;2024-01-30T20:50:56;18.67;;;10.33;;
32964;SDS011;19317;48.226;11.686;2024-01-30T20:55:46;17.47;;;9.93;;
32964;SDS011;19317;48.226;11.686;2024-01-30T21:00:37;14.20;;;8.77;;
32964;SDS011;19317;48.226;11.686;2024-01-30T21:05:28;13.00;;;8.00;;
32964;SDS011;19317;48.226;11.686;2024-01-30T21:10:19;12.70;;;8.10;;
32964;SDS011;19317;48.226;11.686;2024-01-30T21:15:10;10.90;;;7.83;;
32964;SDS011;19317;48.226;11.686;2024-01-30T21:20:01;11.93;;;7.10;;
32964;SDS011;19317;48.226;11.686;2024-01-30T21:24:52;12.20;;;7.77;;
32964;SDS011;19317;48.226;11.686;2024-01-30T21:29:43;12.00;;;7.50;;
32964;SDS011;19317;48.226;11.686;2024-01-30T21:34:34;10.97;;;7.20;;
32964;SDS011;19317;48.226;11.686;2024-01-30T21:39:25;10.23;;;7.47;;
32964;SDS011;19317;48.226;11.686;2024-01-30T21:44:16;13.00;;;7.20;;
32964;SDS011;19317;48.226;11.686;2024-01-30T21:49:06;18.20;;;12.30;;
32964;SDS011;19317;48.226;11.686;2024-01-30T21:53:57;13.30;;;8.50;;
32964;SDS011;19317;48.226;11.686;2024-01-30T21:58:48;12.67;;;8.27;;
32964;SDS011;19317;48.226;11.686;2024-01-30T22:03:39;12.60;;;7.40;;
32964;SDS011;19317;48.226;11.686;2024-01-30T22:08:30;12.67;;;7.23;;
32964;SDS011;19317;48.226;11.686;2024-01-30T22:13:21;9.70;;;7.07;;
32964;SDS011;19317;48.226;11.686;2024-01-30T22:18:12;9.23;;;6.50;;
32964;SDS011;19317;48.226;11.686;2024-01-30T22:23:03;10.30;;;7.30;;
32964;SDS011;19317;48.226;11.686;2024-01-30T22:27:54;10.03;;;6.83;;
32964;SDS011;19317;48.226;11.686;2024-01-30T22:32:44;11.90;;;6.97;;
32964;SDS011;19317;48.226;11.686;2024-01-30T22:37:36;10.70;;;6.53;;
32964;SDS011;19317;48.226;11.686;2024-01-30T22:42:27;8.57;;;6.27;;
32964;SDS011;19317;48.226;11.686;2024-01-30T22:47:18;7.43;;;6.33;;
32964;SDS011;19317;48.226;11.686;2024-01-30T22:52:09;10.53;;;6.60;;
32964;SDS011;19317;48.226;11.686;2024-01-30T22:56:59;8.87;;;6.83;;
32964;SDS011;19317;48.226;11.686;2024-01-30T23:01:50;10.53;;;6.87;;
32964;SDS011;19317;48.226;11.686;2024-01-30T23:06:41;11.40;;;6.97;;
32964;SDS011;19317;48.226;11.686;2024-01-30T23:11:32;9.33;;;6.67;;
32964;SDS011;19317;48.226;11.686;2024-01-30T23:16:23;9.13;;;6.87;;
32964;SDS011;19317;48.226;11.686;2024-01-30T23:21:14;10.33;;;6.77;;
32964;SDS011;19317;48.226;11.686;2024-01-30T23:26:05;13.23;;;6.90;;
32964;SDS011;19317;48.226;11.686;2024-01-30T23:30:55;10.03;;;6.77;;
32964;SDS011;19317;48.226;11.686;2024-01-30T23:35:46;10.07;;;5.93;;
32964;SDS011;19317;48.226;11.686;2024-01-30T23:40:37;8.03;;;6.17;;
32964;SDS011;19317;48.226;11.686;2024-01-30T23:45:28;6.77;;;5.73;;
32964;SDS011;19317;48.226;11.686;2024-01-30T23:50:19;7.73;;;6.30;;
32964;SDS011;19317;48.226;11.686;2024-01-30T23:55:10;8.30;;;5.93;;
